Terminal Aerodrome Forecast
Issued by NWS

Home | Current Version | Previous Version | Text Only | Print | Product List | Glossary On
Versions: 1 2 3 4 5 6 7 8 9 10 11 12 13 14 15 16 17 18 19 20 21 22 23 24 25 26 27 28 29 30 31 32 33
000
FTUS43 KGRB 180400 AAA
TAFRHI
TAF AMD
KRHI 180434Z 1805/1824 28013G19KT P6SM -SN SCT017 BKN035
      TEMPO 1805/1808 3SM -SHSN BKN017
     FM181500 27011G18KT P6SM BKN025 BKN035
     FM182000 25012G17KT P6SM SCT025 BKN035=

USA.gov is the U.S. government's official web portal to all federal, state and local government web resources and services.